Aviation Digital Data Service (ADDS)

Output produced by METARs form (1700 UTC 17 October 2017)
found at http://aviationweather.gov/adds/metars/
 
KFRG 171653Z 34007KT 10SM CLR 13/00 A3031 RMK AO2 SLP262 T01280000
KISP 171656Z 04006KT 10SM CLR 13/00 A3030 RMK AO2 SLP259 T01330000
KISP 171530Z 1716/1812 02010KT P6SM SKC 
     FM171800 35006KT P6SM SKC 
     FM172000 22005KT P6SM SKC 
     FM180300 VRB04KT P6SM SKC
       
KJFK 171651Z VRB04KT 10SM FEW250 13/M01 A3032 RMK AO2 SLP268 T01281006
KJFK 171530Z 1716/1818 36010KT P6SM SKC 
     FM171800 31006KT P6SM SKC 
     FM172000 26006KT P6SM SKC 
     FM172100 23006KT P6SM SKC 
     FM181100 27007KT P6SM SKC 
     FM181500 30006KT P6SM SKC 
     FM181700 24006KT P6SM SKC
       
KBDR 171652Z 15006KT 10SM CLR 11/00 A3030 RMK AO2 SLP261 T01110000
KBDR 171530Z 1716/1812 35007KT P6SM SKC 
     FM171700 29006KT P6SM SKC 
     FM171900 24005KT P6SM SKC